Time;durP1;ratioP1;P1;durP2;ratioP2;P2;SDS_P1;SDS_P2;PMS_P1;PMS_P2;Temp;Humidity;BMP_temperature;BMP_pressure;BME280_temperature;BME280_humidity;BME280_pressure;Samples;Min_cycle;Max_cycle;Signal;HPM_P1;HPM_P2
2022/04/11 00:01:57;;;;;;;14.17;12.70;;;4.60;99.90;;;;;;4992335;28;20200;-66
2022/04/11 00:04:23;;;;;;;12.00;10.80;;;4.60;99.90;;;;;;4991761;28;20263;-65
2022/04/11 00:06:48;;;;;;;12.30;11.30;;;4.60;99.90;;;;;;4991882;28;20204;-66
2022/04/11 00:09:14;;;;;;;12.77;11.50;;;4.60;99.90;;;;;;4992475;28;20218;-65
2022/04/11 00:11:40;;;;;;;14.83;11.53;;;4.60;99.90;;;;;;4993407;28;20200;-66
2022/04/11 00:14:06;;;;;;;12.83;11.83;;;4.60;99.90;;;;;;4991550;28;20208;-66
2022/04/11 00:16:32;;;;;;;12.20;11.07;;;4.50;99.90;;;;;;4991579;28;20180;-66
2022/04/11 00:18:57;;;;;;;12.20;11.00;;;4.50;99.90;;;;;;4993365;28;20181;-66
2022/04/11 00:21:23;;;;;;;12.47;11.37;;;4.50;99.90;;;;;;4993398;28;20647;-66
2022/04/11 00:23:49;;;;;;;12.47;11.40;;;4.60;99.90;;;;;;4993343;28;20188;-65
2022/04/11 00:26:14;;;;;;;12.70;11.40;;;4.60;99.90;;;;;;4991785;28;20196;-65
2022/04/11 00:28:40;;;;;;;13.53;12.03;;;4.50;99.90;;;;;;4993143;28;20189;-66
2022/04/11 00:31:06;;;;;;;12.73;11.33;;;4.50;99.90;;;;;;4993061;28;20240;-66
2022/04/11 00:33:31;;;;;;;12.20;11.00;;;4.50;99.90;;;;;;4993200;28;20200;-66
2022/04/11 00:35:57;;;;;;;12.07;10.93;;;4.50;99.90;;;;;;4992719;28;20185;-66
2022/04/11 00:38:22;;;;;;;12.07;11.00;;;4.40;99.90;;;;;;4991937;28;20616;-66
2022/04/11 00:40:48;;;;;;;12.13;10.93;;;4.40;99.90;;;;;;4991375;28;20185;-66
2022/04/11 00:43:33;;;;;;;12.70;11.50;;;4.40;99.90;;;;;;4993121;28;20674;-66
2022/04/11 00:45:59;;;;;;;12.23;11.10;;;4.40;99.90;;;;;;4992713;28;20180;-65
2022/04/11 00:48:25;;;;;;;11.67;10.67;;;4.40;99.90;;;;;;4993051;28;20647;-65
2022/04/11 00:50:54;;;;;;;13.17;11.80;;;4.40;99.90;;;;;;4993290;28;20180;-65
2022/04/11 00:53:21;;;;;;;13.30;11.70;;;4.40;99.90;;;;;;4995609;28;20692;-65
2022/04/11 00:55:47;;;;;;;13.47;10.80;;;4.40;99.90;;;;;;4993416;28;20264;-65
2022/04/11 00:58:13;;;;;;;11.60;10.50;;;4.40;99.90;;;;;;4993194;28;20223;-65
2022/04/11 01:00:40;;;;;;;14.27;11.27;;;4.40;99.90;;;;;;5012270;28;20180;-65
2022/04/11 01:03:05;;;;;;;12.37;11.37;;;4.50;99.90;;;;;;5012357;28;20534;-65
2022/04/11 01:05:31;;;;;;;11.47;10.57;;;4.50;99.90;;;;;;5012134;28;20176;-65
2022/04/11 01:08:05;;;;;;;12.00;10.57;;;4.50;99.90;;;;;;5012109;28;20176;-65
2022/04/11 01:10:30;;;;;;;11.30;10.30;;;4.50;99.90;;;;;;5012191;28;20238;-66
2022/04/11 01:12:56;;;;;;;12.17;11.03;;;4.50;99.90;;;;;;5011806;28;20584;-65
2022/04/11 01:15:22;;;;;;;11.83;10.33;;;4.50;99.90;;;;;;5010926;28;20183;-65
2022/04/11 01:17:47;;;;;;;11.57;10.67;;;4.60;99.90;;;;;;5011986;28;20539;-65
2022/04/11 01:20:16;;;;;;;11.40;10.30;;;4.60;99.90;;;;;;5010762;28;20287;-65
2022/04/11 01:22:43;;;;;;;11.87;10.40;;;4.60;99.90;;;;;;5010465;28;20295;-65
2022/04/11 01:25:10;;;;;;;12.07;10.77;;;4.60;99.90;;;;;;5011770;28;20180;-65
2022/04/11 01:27:37;;;;;;;11.10;10.30;;;4.60;99.90;;;;;;5011273;28;20187;-65
2022/04/11 01:30:04;;;;;;;11.87;10.60;;;4.70;99.90;;;;;;5011885;28;20193;-66
2022/04/11 01:32:30;;;;;;;12.43;10.97;;;4.60;99.90;;;;;;5011577;28;20238;-66
2022/04/11 01:34:56;;;;;;;12.20;10.73;;;4.70;99.90;;;;;;5011434;28;20172;-65
2022/04/11 01:37:22;;;;;;;12.70;11.43;;;4.60;99.90;;;;;;5011836;28;20585;-66
2022/04/11 01:39:48;;;;;;;11.97;10.97;;;4.60;99.90;;;;;;5011966;28;20203;-65
2022/04/11 01:42:14;;;;;;;12.03;10.87;;;4.70;99.90;;;;;;5011470;28;20238;-66
2022/04/11 01:44:39;;;;;;;12.10;10.90;;;4.60;99.90;;;;;;5011382;28;20522;-66
2022/04/11 01:47:05;;;;;;;11.80;10.83;;;4.60;99.90;;;;;;5011551;28;20289;-65
2022/04/11 01:49:30;;;;;;;11.80;10.87;;;4.60;99.90;;;;;;5010473;28;20638;-65
2022/04/11 01:51:56;;;;;;;11.13;10.23;;;4.60;99.90;;;;;;5010136;28;20218;-66
2022/04/11 01:54:21;;;;;;;11.83;10.73;;;4.60;99.90;;;;;;5011590;28;20208;-66
2022/04/11 01:56:47;;;;;;;11.03;10.00;;;4.60;99.90;;;;;;5011018;28;20211;-65
2022/04/11 01:59:14;;;;;;;11.80;10.93;;;4.60;99.90;;;;;;5002930;28;20184;-65
2022/04/11 02:01:40;;;;;;;11.73;10.80;;;4.60;99.90;;;;;;4991976;28;20600;-66
2022/04/11 02:04:06;;;;;;;11.43;10.43;;;4.50;99.90;;;;;;4990633;28;20223;-65
2022/04/11 02:06:32;;;;;;;11.37;10.30;;;4.60;99.90;;;;;;4991649;28;20177;-66
2022/04/11 02:08:57;;;;;;;11.77;10.67;;;4.60;99.90;;;;;;4991811;28;20177;-66
2022/04/11 02:11:23;;;;;;;10.77;10.00;;;4.50;99.90;;;;;;4990672;28;20208;-65
2022/04/11 02:13:49;;;;;;;11.10;10.10;;;4.50;99.90;;;;;;4989428;28;20208;-65
2022/04/11 02:16:14;;;;;;;10.77;9.93;;;4.50;99.90;;;;;;4990266;28;20176;-66
2022/04/11 02:18:40;;;;;;;10.87;9.97;;;4.40;99.90;;;;;;4991591;28;20181;-65
2022/04/11 02:21:05;;;;;;;11.07;9.87;;;4.50;99.90;;;;;;4990639;28;20300;-65
2022/04/11 02:23:31;;;;;;;10.53;9.57;;;4.40;99.90;;;;;;4990523;28;20213;-66
2022/04/11 02:25:57;;;;;;;10.63;9.83;;;4.40;99.90;;;;;;4990114;28;20551;-66
2022/04/11 02:28:22;;;;;;;11.20;9.97;;;4.50;99.90;;;;;;4991742;28;20173;-66
2022/04/11 02:30:48;;;;;;;10.53;9.73;;;4.40;99.90;;;;;;4991547;28;20348;-65
2022/04/11 02:33:13;;;;;;;10.77;9.83;;;4.40;99.90;;;;;;4990337;28;20212;-66
2022/04/11 02:35:41;;;;;;;9.77;9.07;;;4.40;99.90;;;;;;4990095;28;20177;-66
2022/04/11 02:38:06;;;;;;;11.07;10.07;;;4.40;99.90;;;;;;4992121;28;20192;-66
2022/04/11 02:40:32;;;;;;;10.70;9.97;;;4.30;99.90;;;;;;4995221;28;20647;-66
2022/04/11 02:42:57;;;;;;;10.50;9.60;;;4.30;99.90;;;;;;4995085;28;20224;-65
2022/04/11 02:45:24;;;;;;;14.60;10.20;;;4.30;99.90;;;;;;4993833;28;20598;-66
2022/04/11 02:47:50;;;;;;;10.33;9.60;;;4.30;99.90;;;;;;4993752;28;20184;-65
2022/04/11 02:50:15;;;;;;;11.47;10.30;;;4.20;99.90;;;;;;4995133;28;20235;-65
2022/04/11 02:52:41;;;;;;;13.13;10.50;;;4.20;99.90;;;;;;4993593;28;20212;-65
2022/04/11 02:55:08;;;;;;;10.60;9.87;;;4.20;99.90;;;;;;4993576;28;20207;-66
2022/04/11 02:57:36;;;;;;;12.40;10.40;;;4.20;99.90;;;;;;4994976;28;20209;-66
2022/04/11 03:00:05;;;;;;;9.83;9.13;;;4.20;99.90;;;;;;5010303;28;20223;-66
2022/04/11 03:02:31;;;;;;;11.33;10.40;;;4.10;99.90;;;;;;5014420;28;20278;-66
2022/04/11 03:04:56;;;;;;;13.17;11.87;;;4.10;99.90;;;;;;5014021;28;20608;-66
2022/04/11 03:07:22;;;;;;;10.83;9.87;;;4.10;99.90;;;;;;5014453;28;20263;-65
2022/04/11 03:09:48;;;;;;;10.90;9.83;;;4.10;99.90;;;;;;5014373;28;20176;-65
2022/04/11 03:12:13;;;;;;;9.93;9.17;;;4.10;99.90;;;;;;5013060;28;20216;-65
2022/04/11 03:14:39;;;;;;;10.77;9.97;;;4.10;99.90;;;;;;5012190;28;20180;-65
2022/04/11 03:17:05;;;;;;;11.30;10.20;;;4.10;99.90;;;;;;5014126;28;20600;-66
2022/04/11 03:19:30;;;;;;;11.20;10.27;;;4.10;99.90;;;;;;5014129;28;20176;-66
2022/04/11 03:21:56;;;;;;;11.50;10.50;;;4.10;99.90;;;;;;5012620;28;20207;-65
2022/04/11 03:24:21;;;;;;;10.63;9.73;;;4.00;99.90;;;;;;5014045;28;20180;-65
2022/04/11 03:26:47;;;;;;;10.80;9.90;;;4.10;99.90;;;;;;5013540;28;20176;-65
2022/04/11 03:29:12;;;;;;;9.77;9.07;;;4.10;99.90;;;;;;5012700;28;20267;-65
2022/04/11 03:31:38;;;;;;;10.67;9.60;;;4.00;99.90;;;;;;5013715;28;20646;-66
2022/04/11 03:34:04;;;;;;;13.93;9.93;;;4.00;99.90;;;;;;5013745;28;20187;-65
2022/04/11 03:36:29;;;;;;;9.80;9.13;;;4.00;99.90;;;;;;5012306;28;20582;-66
2022/04/11 03:38:55;;;;;;;11.23;10.17;;;4.00;99.90;;;;;;5012287;28;20603;-65
2022/04/11 03:41:21;;;;;;;10.10;9.40;;;4.00;99.90;;;;;;5014089;28;20597;-65
2022/04/11 03:43:46;;;;;;;10.40;9.37;;;4.00;99.90;;;;;;5013593;28;20180;-65
2022/04/11 03:46:12;;;;;;;10.70;9.70;;;4.10;99.90;;;;;;5013405;28;20263;-65
2022/04/11 03:48:37;;;;;;;9.80;9.00;;;4.10;99.90;;;;;;5013418;28;20207;-65
2022/04/11 03:51:03;;;;;;;9.90;8.90;;;4.10;99.90;;;;;;5012989;28;20228;-66
2022/04/11 03:53:29;;;;;;;10.07;9.37;;;4.10;99.90;;;;;;5012122;28;20685;-65
2022/04/11 03:55:54;;;;;;;11.23;10.10;;;4.00;99.90;;;;;;5013178;28;20187;-66
2022/04/11 03:58:20;;;;;;;11.20;10.20;;;4.00;99.90;;;;;;5012039;28;20542;-66
2022/04/11 04:00:46;;;;;;;10.40;9.60;;;3.90;99.90;;;;;;4993676;28;20184;-66
2022/04/11 04:03:12;;;;;;;10.40;9.43;;;3.80;99.90;;;;;;4992683;28;20627;-65
2022/04/11 04:05:46;;;;;;;10.67;9.67;;;3.80;99.90;;;;;;4992197;28;20181;-65
2022/04/11 04:08:12;;;;;;;9.80;9.20;;;3.70;99.90;;;;;;4993621;28;20228;-65
2022/04/11 04:10:40;;;;;;;10.63;9.83;;;3.60;99.90;;;;;;4993652;28;20650;-65
2022/04/11 04:13:06;;;;;;;10.73;9.83;;;3.60;99.90;;;;;;4992292;28;20670;-65
2022/04/11 04:15:32;;;;;;;10.37;9.67;;;3.50;99.90;;;;;;4992413;28;20197;-66
2022/04/11 04:17:58;;;;;;;10.30;9.70;;;3.40;99.90;;;;;;4993533;28;20173;-65
2022/04/11 04:20:26;;;;;;;10.27;9.50;;;3.20;99.90;;;;;;4993487;28;20180;-66
2022/04/11 04:22:52;;;;;;;11.87;10.97;;;3.20;99.90;;;;;;4991731;28;20675;-65
2022/04/11 04:25:18;;;;;;;12.33;11.40;;;3.10;99.90;;;;;;4992987;28;20180;-65
2022/04/11 04:27:43;;;;;;;13.67;12.43;;;3.00;99.90;;;;;;4991951;28;20519;-66
2022/04/11 04:30:09;;;;;;;16.07;14.83;;;3.00;99.90;;;;;;4992100;28;20275;-66
2022/04/11 04:32:35;;;;;;;13.13;12.13;;;2.90;99.90;;;;;;4993399;28;20240;-65
2022/04/11 04:35:01;;;;;;;11.80;10.87;;;2.90;99.90;;;;;;4991617;28;20200;-65
2022/04/11 04:37:27;;;;;;;11.87;10.97;;;2.80;99.90;;;;;;4993141;28;20180;-65
2022/04/11 04:39:52;;;;;;;11.63;10.73;;;2.70;99.90;;;;;;4993884;28;20181;-65
2022/04/11 04:42:22;;;;;;;13.23;12.13;;;2.70;99.90;;;;;;4995998;28;20613;-65
2022/04/11 04:44:47;;;;;;;13.50;12.30;;;2.70;99.90;;;;;;5001958;28;20545;-65
2022/04/11 04:47:15;;;;;;;13.47;12.47;;;2.70;99.90;;;;;;4993749;28;20176;-65
2022/04/11 04:49:41;;;;;;;12.43;11.43;;;2.60;99.90;;;;;;4993258;28;20199;-65
2022/04/11 04:52:07;;;;;;;13.70;12.53;;;2.60;99.90;;;;;;4993044;28;20209;-65
2022/04/11 04:54:33;;;;;;;12.57;11.60;;;2.60;99.90;;;;;;4991607;28;20181;-65
2022/04/11 04:56:59;;;;;;;14.03;12.93;;;2.60;99.90;;;;;;4992652;28;20184;-65
2022/04/11 04:59:24;;;;;;;13.77;12.77;;;2.60;99.90;;;;;;5002936;28;20259;-66
2022/04/11 05:01:50;;;;;;;11.90;10.93;;;2.60;99.90;;;;;;5011513;28;20278;-66
2022/04/11 05:04:15;;;;;;;13.67;12.30;;;2.70;99.90;;;;;;5011224;28;20187;-66
2022/04/11 05:06:41;;;;;;;12.47;11.67;;;2.70;99.90;;;;;;5011916;28;20168;-66
2022/04/11 05:09:07;;;;;;;12.70;11.70;;;2.70;99.90;;;;;;5011116;28;20176;-66
2022/04/11 05:11:32;;;;;;;12.30;11.40;;;2.80;99.90;;;;;;5011053;28;20254;-66
2022/04/11 05:13:58;;;;;;;13.83;12.63;;;2.80;99.90;;;;;;5011319;28;20254;-66
2022/04/11 05:16:23;;;;;;;13.70;12.53;;;2.80;99.90;;;;;;5012079;28;20591;-66
2022/04/11 05:18:49;;;;;;;13.23;12.23;;;2.80;99.90;;;;;;5012387;28;20176;-66
2022/04/11 05:21:14;;;;;;;12.80;11.90;;;2.90;99.90;;;;;;5011023;28;20200;-66
2022/04/11 05:23:41;;;;;;;13.10;12.10;;;2.90;99.90;;;;;;5012016;28;20187;-66
2022/04/11 05:26:07;;;;;;;13.00;12.10;;;2.90;99.90;;;;;;5011943;28;20172;-66
2022/04/11 05:28:33;;;;;;;14.13;12.97;;;2.90;99.90;;;;;;5012167;28;20210;-66
2022/04/11 05:30:59;;;;;;;12.77;11.80;;;3.00;99.90;;;;;;5011886;28;20825;-66
2022/04/11 05:33:26;;;;;;;12.80;11.70;;;3.00;99.90;;;;;;5011798;28;20203;-66
2022/04/11 05:35:52;;;;;;;12.63;11.57;;;3.10;99.90;;;;;;5010403;28;20641;-66
2022/04/11 05:38:19;;;;;;;11.80;10.90;;;3.20;99.90;;;;;;5011935;28;20165;-66
2022/04/11 05:40:48;;;;;;;11.47;10.67;;;3.30;99.90;;;;;;5011429;28;20639;-66
2022/04/11 05:43:14;;;;;;;12.40;11.20;;;3.40;99.90;;;;;;5010659;28;20268;-66
2022/04/11 05:45:40;;;;;;;11.73;10.83;;;3.50;99.90;;;;;;5010269;28;20705;-66
2022/04/11 05:48:06;;;;;;;11.00;10.13;;;3.60;99.90;;;;;;5011882;28;20194;-66
2022/04/11 05:50:32;;;;;;;11.50;10.37;;;3.70;99.90;;;;;;5011723;28;20196;-66
2022/04/11 05:52:58;;;;;;;12.40;11.10;;;3.80;99.90;;;;;;5010121;28;20629;-66
2022/04/11 05:55:23;;;;;;;10.27;9.43;;;3.80;99.90;;;;;;5011691;28;20453;-66
2022/04/11 05:57:50;;;;;;;10.20;9.40;;;3.90;99.90;;;;;;5010354;28;20183;-66
2022/04/11 06:00:16;;;;;;;10.07;9.30;;;4.00;99.90;;;;;;4993225;28;20173;-66
2022/04/11 06:02:42;;;;;;;10.03;9.37;;;4.10;99.90;;;;;;4991990;28;20192;-66
2022/04/11 06:05:09;;;;;;;10.83;9.83;;;4.20;99.90;;;;;;5022346;28;20184;-66
2022/04/11 06:07:35;;;;;;;10.13;9.20;;;4.30;99.90;;;;;;4992046;28;20169;-66
2022/04/11 06:10:01;;;;;;;11.30;10.20;;;4.40;99.90;;;;;;4992153;28;20239;-66
2022/04/11 06:12:27;;;;;;;9.57;8.80;;;4.60;99.90;;;;;;4990220;28;20209;-66
2022/04/11 06:14:53;;;;;;;9.43;8.67;;;5.00;99.90;;;;;;4992516;28;20177;-67
2022/04/11 06:17:23;;;;;;;10.93;7.93;;;5.50;99.90;;;;;;4995749;28;20228;-67
2022/04/11 06:19:53;;;;;;;8.87;8.20;;;6.20;99.90;;;;;;4995984;28;20176;-67
2022/04/11 06:22:19;;;;;;;8.10;7.33;;;6.80;99.90;;;;;;4996457;28;20248;-68
2022/04/11 06:24:46;;;;;;;8.77;7.90;;;7.40;99.90;;;;;;5008934;28;20248;-66
2022/04/11 06:27:12;;;;;;;9.27;8.37;;;7.80;99.90;;;;;;5011271;28;20249;-66
2022/04/11 06:29:37;;;;;;;8.23;7.60;;;8.20;99.90;;;;;;5016995;28;20185;-66
2022/04/11 06:32:04;;;;;;;6.70;6.27;;;8.50;99.90;;;;;;4995680;28;20605;-66
2022/04/11 06:34:37;;;;;;;7.50;6.70;;;8.80;99.90;;;;;;4995492;28;20208;-67
2022/04/11 06:37:03;;;;;;;7.80;7.07;;;9.20;99.90;;;;;;4995261;28;20619;-67
2022/04/11 06:39:29;;;;;;;7.23;6.63;;;9.40;99.90;;;;;;4995477;28;20205;-66
2022/04/11 06:41:55;;;;;;;7.30;6.80;;;9.60;99.90;;;;;;4995091;28;20244;-67
2022/04/11 06:44:20;;;;;;;8.17;6.97;;;9.70;99.90;;;;;;4994082;28;20173;-66
2022/04/11 06:46:46;;;;;;;7.87;7.13;;;9.70;99.90;;;;;;4993543;28;20181;-66
2022/04/11 06:49:12;;;;;;;7.60;6.93;;;9.80;99.90;;;;;;4994078;28;20665;-68
2022/04/11 06:51:38;;;;;;;7.00;6.40;;;9.90;99.90;;;;;;4995065;28;20189;-67
2022/04/11 06:54:04;;;;;;;7.33;6.70;;;10.10;99.90;;;;;;4993860;28;20212;-67
2022/04/11 06:56:30;;;;;;;6.60;6.13;;;10.40;99.90;;;;;;4993658;28;20172;-66
2022/04/11 06:58:55;;;;;;;7.17;6.47;;;10.60;99.90;;;;;;4999761;28;20645;-67
2022/04/11 07:01:21;;;;;;;7.83;7.23;;;10.80;99.90;;;;;;5014655;28;20184;-68
2022/04/11 07:03:47;;;;;;;6.83;6.33;;;10.90;99.90;;;;;;5014538;28;20238;-67
2022/04/11 07:06:13;;;;;;;7.50;6.80;;;11.10;99.90;;;;;;5014104;28;20222;-67
2022/04/11 07:08:39;;;;;;;8.03;6.37;;;11.20;99.90;;;;;;5012694;28;20725;-67
2022/04/11 07:11:06;;;;;;;7.70;6.90;;;11.50;99.90;;;;;;5014131;28;20283;-66
2022/04/11 07:13:32;;;;;;;8.07;6.47;;;11.70;99.90;;;;;;5014087;28;20635;-67
2022/04/11 07:15:58;;;;;;;7.47;6.70;;;12.10;99.90;;;;;;5013070;28;20280;-67
2022/04/11 07:18:27;;;;;;;7.20;6.40;;;12.30;99.90;;;;;;5014621;28;20172;-67
2022/04/11 07:20:53;;;;;;;6.17;5.67;;;12.50;99.90;;;;;;5013858;28;20172;-67
2022/04/11 07:23:19;;;;;;;6.70;6.20;;;12.80;99.90;;;;;;5010686;28;20180;-67
2022/04/11 07:25:44;;;;;;;6.90;6.30;;;13.00;99.90;;;;;;4993109;28;20204;-67
2022/04/11 07:28:10;;;;;;;7.10;6.53;;;13.30;99.90;;;;;;4994626;28;20192;-67
2022/04/11 07:30:35;;;;;;;7.20;6.50;;;13.40;99.90;;;;;;4993006;28;20181;-67
2022/04/11 07:33:01;;;;;;;7.07;6.07;;;13.50;99.90;;;;;;4994000;28;20208;-67
2022/04/11 07:35:27;;;;;;;7.47;6.77;;;13.40;99.90;;;;;;4994028;28;20181;-67
2022/04/11 07:37:52;;;;;;;7.03;6.33;;;13.20;99.90;;;;;;4993173;28;20247;-66
2022/04/11 07:40:18;;;;;;;7.80;7.10;;;13.10;99.90;;;;;;4994315;28;20173;-66
2022/04/11 07:42:43;;;;;;;6.80;6.10;;;13.10;99.90;;;;;;4993985;28;20227;-67
2022/04/11 07:45:09;;;;;;;7.53;6.83;;;13.00;99.90;;;;;;4992830;28;20180;-67
2022/04/11 07:47:35;;;;;;;7.40;6.77;;;13.10;99.90;;;;;;4994209;28;20181;-67
2022/04/11 07:50:01;;;;;;;11.27;6.60;;;13.30;99.90;;;;;;4993829;28;20183;-67
2022/04/11 07:52:26;;;;;;;13.40;6.57;;;13.60;99.90;;;;;;4994157;28;20211;-67
2022/04/11 07:54:52;;;;;;;6.50;5.90;;;13.80;99.90;;;;;;4991467;28;20184;-67
2022/04/11 07:57:18;;;;;;;6.40;6.10;;;14.10;99.90;;;;;;4993927;28;20631;-67
2022/04/11 07:59:44;;;;;;;6.70;6.10;;;14.40;99.90;;;;;;4993790;28;20184;-67
2022/04/11 08:02:10;;;;;;;7.10;6.20;;;14.30;99.90;;;;;;4993995;28;20199;-67
2022/04/11 08:04:36;;;;;;;7.60;6.70;;;14.30;99.20;;;;;;4993560;28;20211;-67
2022/04/11 08:07:02;;;;;;;6.97;6.40;;;14.10;99.70;;;;;;4993436;28;20255;-67
2022/04/11 08:09:29;;;;;;;7.27;6.20;;;14.10;99.70;;;;;;4993804;28;20515;-67
2022/04/11 08:11:55;;;;;;;6.80;6.17;;;14.00;99.90;;;;;;4993330;28;20193;-67
2022/04/11 08:14:20;;;;;;;6.70;6.10;;;14.10;99.90;;;;;;4993666;28;20231;-67
2022/04/11 08:16:46;;;;;;;6.93;6.20;;;14.40;99.90;;;;;;4993066;28;20177;-67
2022/04/11 08:19:12;;;;;;;5.73;5.23;;;14.70;99.20;;;;;;4993418;28;20188;-67
2022/04/11 08:21:37;;;;;;;6.07;5.60;;;15.00;98.30;;;;;;4993647;28;20193;-67
2022/04/11 08:24:04;;;;;;;6.00;5.60;;;15.30;99.40;;;;;;4993581;28;20643;-67
2022/04/11 08:26:29;;;;;;;6.40;5.80;;;15.40;97.70;;;;;;5007104;28;20212;-67
2022/04/11 08:28:55;;;;;;;6.87;6.27;;;15.50;97.50;;;;;;4993944;28;20297;-67
2022/04/11 08:31:20;;;;;;;6.73;6.07;;;15.60;96.50;;;;;;4993370;28;20205;-67
2022/04/11 08:33:46;;;;;;;7.10;6.40;;;15.80;97.40;;;;;;4993159;28;20678;-67
2022/04/11 08:36:12;;;;;;;6.90;6.37;;;15.90;97.40;;;;;;4992887;28;20196;-67
2022/04/11 08:38:37;;;;;;;7.23;6.67;;;16.20;96.50;;;;;;4993162;28;20192;-67
2022/04/11 08:41:03;;;;;;;6.50;5.97;;;16.40;96.80;;;;;;4992832;28;20216;-67
2022/04/11 08:43:30;;;;;;;6.87;6.27;;;16.50;94.90;;;;;;4993122;28;20176;-67
2022/04/11 08:46:01;;;;;;;6.37;5.43;;;16.50;94.60;;;;;;4991989;28;20208;-68
2022/04/11 08:48:27;;;;;;;6.17;5.67;;;16.50;94.70;;;;;;4993150;28;20173;-67
2022/04/11 08:50:52;;;;;;;7.70;5.50;;;16.60;94.50;;;;;;4992732;28;20181;-66
2022/04/11 08:53:22;;;;;;;6.20;5.70;;;16.60;93.70;;;;;;4993026;28;20664;-67
2022/04/11 08:55:48;;;;;;;5.50;5.00;;;16.80;94.70;;;;;;4992464;28;20259;-67
2022/04/11 08:58:14;;;;;;;7.33;6.27;;;17.00;94.50;;;;;;4991459;28;20654;-66
2022/04/11 09:00:40;;;;;;;8.27;5.50;;;17.00;93.20;;;;;;4992648;28;20173;-66
2022/04/11 09:03:07;;;;;;;7.07;4.87;;;16.80;92.60;;;;;;4991216;28;20546;-67
2022/04/11 09:05:34;;;;;;;6.07;5.50;;;16.60;91.90;;;;;;4992705;28;20180;-67
2022/04/11 09:08:00;;;;;;;5.83;5.33;;;16.30;93.40;;;;;;4992788;28;20188;-67
2022/04/11 09:10:32;;;;;;;8.47;6.03;;;16.30;94.40;;;;;;4992782;28;20642;-66
2022/04/11 09:13:01;;;;;;;5.70;5.20;;;16.60;93.10;;;;;;4992245;28;20289;-66
2022/04/11 09:15:27;;;;;;;5.60;5.10;;;16.60;92.40;;;;;;4992385;28;20220;-67
2022/04/11 09:17:57;;;;;;;5.80;5.30;;;16.70;91.50;;;;;;4992475;28;20184;-66
2022/04/11 09:20:26;;;;;;;5.60;5.10;;;16.70;91.00;;;;;;4992890;28;20169;-67
2022/04/11 09:22:52;;;;;;;5.27;4.90;;;16.50;91.20;;;;;;4992185;28;20197;-66
2022/04/11 09:25:20;;;;;;;5.40;5.00;;;16.30;91.20;;;;;;4992267;28;20176;-67
2022/04/11 09:27:47;;;;;;;5.50;5.10;;;16.50;91.00;;;;;;4992380;28;20243;-66
2022/04/11 09:30:22;;;;;;;6.20;5.60;;;16.70;90.00;;;;;;4990645;28;20176;-66
2022/04/11 09:32:52;;;;;;;5.60;5.10;;;16.80;89.00;;;;;;4990795;28;20220;-66
2022/04/11 09:35:22;;;;;;;5.53;5.03;;;17.10;90.80;;;;;;4991947;28;20173;-66
2022/04/11 09:37:48;;;;;;;5.83;5.33;;;17.40;88.70;;;;;;4992220;28;20192;-67
2022/04/11 09:40:20;;;;;;;8.43;5.30;;;17.20;89.10;;;;;;4992629;28;20547;-67
2022/04/11 09:42:55;;;;;;;5.10;4.80;;;17.30;85.10;;;;;;4992415;28;20316;-67
2022/04/11 09:45:21;;;;;;;5.60;5.10;;;16.90;81.30;;;;;;4991278;28;20172;-65
2022/04/11 09:48:04;;;;;;;5.83;5.33;;;16.80;80.80;;;;;;4999771;28;20195;-67
2022/04/11 09:50:32;;;;;;;8.27;5.47;;;16.70;81.00;;;;;;5007597;28;20184;-66
2022/04/11 09:53:16;;;;;;;5.50;5.10;;;16.60;81.70;;;;;;5009946;28;20204;-66
2022/04/11 09:55:43;;;;;;;5.63;5.07;;;16.50;80.20;;;;;;4993816;28;20168;-66
2022/04/11 09:58:09;;;;;;;6.20;5.23;;;16.40;79.70;;;;;;4992266;28;20577;-67
2022/04/11 10:00:37;;;;;;;5.50;5.10;;;16.50;81.40;;;;;;4990066;28;20185;-67
2022/04/11 10:03:05;;;;;;;5.50;5.00;;;16.60;78.70;;;;;;4990511;28;20260;-66
2022/04/11 10:05:33;;;;;;;6.63;5.90;;;16.70;83.40;;;;;;4991792;28;20267;-67
2022/04/11 10:08:00;;;;;;;5.93;5.43;;;17.00;85.20;;;;;;4992014;28;20169;-67
2022/04/11 10:10:26;;;;;;;5.33;4.83;;;17.40;84.50;;;;;;4992126;28;20205;-66
2022/04/11 10:12:53;;;;;;;5.30;4.90;;;17.70;83.40;;;;;;4991644;28;20259;-66
2022/04/11 10:15:20;;;;;;;5.60;5.07;;;17.80;81.20;;;;;;4989529;28;20252;-67
2022/04/11 10:17:49;;;;;;;6.23;5.37;;;18.00;80.10;;;;;;4991339;28;20638;-66
2022/04/11 10:20:27;;;;;;;5.70;5.20;;;17.80;78.70;;;;;;4992409;28;20527;-66
2022/04/11 10:23:08;;;;;;;6.03;5.53;;;17.80;82.50;;;;;;4992013;28;20197;-66
2022/04/11 10:25:43;;;;;;;6.10;5.00;;;18.00;81.40;;;;;;4991753;28;20172;-66
2022/04/11 10:28:22;;;;;;;5.87;5.33;;;18.20;82.10;;;;;;4991851;28;20168;-66
2022/04/11 10:31:09;;;;;;;5.87;5.27;;;18.20;79.90;;;;;;4988517;28;20180;-66
2022/04/11 10:33:52;;;;;;;6.37;5.23;;;18.30;78.70;;;;;;4989960;28;20201;-67
2022/04/11 10:36:37;;;;;;;5.97;5.37;;;18.40;78.50;;;;;;4991466;28;20165;-66
2022/04/11 10:39:14;;;;;;;7.13;6.43;;;18.50;79.90;;;;;;4991535;28;20653;-66
2022/04/11 10:41:58;;;;;;;5.93;5.50;;;18.80;76.60;;;;;;4991549;28;20263;-67
2022/04/11 10:44:36;;;;;;;5.40;5.00;;;18.90;77.50;;;;;;4991737;28;20216;-67
2022/04/11 10:47:08;;;;;;;5.77;5.17;;;19.10;72.50;;;;;;4991511;28;20310;-67
2022/04/11 10:49:49;;;;;;;5.47;5.07;;;19.00;74.50;;;;;;4975878;28;20177;-66
2022/04/11 10:52:35;;;;;;;7.03;5.33;;;19.10;75.70;;;;;;4972114;28;20556;-66
2022/04/11 10:55:15;;;;;;;5.80;5.37;;;19.10;72.00;;;;;;4971669;28;20216;-67
2022/04/11 10:57:53;;;;;;;6.13;5.43;;;18.90;72.80;;;;;;4972040;28;20212;-67
2022/04/11 11:00:19;;;;;;;5.57;5.17;;;18.80;75.10;;;;;;4972878;28;20170;-67
2022/04/11 11:02:54;;;;;;;5.60;5.07;;;18.80;73.70;;;;;;4975395;28;20193;-67
2022/04/11 11:05:26;;;;;;;7.13;5.10;;;18.80;73.50;;;;;;4975269;28;20857;-67
2022/04/11 11:08:10;;;;;;;5.57;4.93;;;19.00;72.40;;;;;;4975271;28;20174;-66
2022/04/11 11:10:57;;;;;;;5.57;5.00;;;19.20;74.30;;;;;;4974083;28;20188;-67
2022/04/11 11:13:36;;;;;;;4.90;4.53;;;19.40;75.00;;;;;;4973996;28;20209;-67
2022/04/11 11:16:07;;;;;;;5.13;4.60;;;19.50;73.40;;;;;;4974962;28;20639;-67
2022/04/11 11:18:53;;;;;;;4.83;4.53;;;19.80;73.40;;;;;;4975287;28;20177;-66
2022/04/11 11:21:47;;;;;;;5.10;4.60;;;19.80;69.60;;;;;;4975103;28;20289;-66
2022/04/11 11:24:14;;;;;;;5.60;5.10;;;19.80;71.20;;;;;;4975708;28;20174;-66
2022/04/11 11:26:45;;;;;;;5.63;5.20;;;19.70;69.30;;;;;;4994118;28;20256;-66
2022/04/11 11:29:24;;;;;;;5.90;5.10;;;19.60;68.80;;;;;;4994341;28;20169;-66
2022/04/11 11:31:55;;;;;;;5.30;5.00;;;19.60;69.00;;;;;;4992867;28;20288;-66
2022/04/11 11:34:22;;;;;;;6.30;5.27;;;19.40;68.30;;;;;;4994569;28;20173;-66
2022/04/11 11:36:48;;;;;;;5.77;5.27;;;19.30;68.60;;;;;;4993984;28;20183;-66
2022/04/11 11:39:22;;;;;;;6.10;5.53;;;19.30;67.40;;;;;;4994181;28;20184;-66
2022/04/11 11:41:51;;;;;;;5.60;5.20;;;19.10;68.30;;;;;;4993997;28;20200;-66
2022/04/11 11:44:17;;;;;;;5.70;5.20;;;19.20;68.80;;;;;;4994274;28;20268;-66
2022/04/11 11:47:00;;;;;;;5.70;5.30;;;19.20;62.40;;;;;;4993754;28;20192;-66
2022/04/11 11:49:42;;;;;;;6.30;5.17;;;19.40;64.30;;;;;;4994163;28;20227;-66
2022/04/11 11:52:12;;;;;;;11.47;6.73;;;19.50;65.20;;;;;;4993888;28;20609;-66
2022/04/11 11:54:40;;;;;;;5.63;5.23;;;19.10;67.90;;;;;;4993828;28;20548;-66
2022/04/11 11:57:13;;;;;;;5.50;5.20;;;19.00;63.50;;;;;;4993812;28;20180;-66
2022/04/11 11:59:53;;;;;;;5.73;5.33;;;19.10;66.00;;;;;;4993827;28;20252;-66
2022/04/11 12:05:24;;;;;;;6.53;5.10;;;19.30;63.10;;;;;;4993606;28;20188;-66
2022/04/11 12:08:02;;;;;;;8.20;5.57;;;19.30;62.20;;;;;;4993663;28;20268;-66
2022/04/11 12:10:28;;;;;;;5.87;5.37;;;19.40;64.90;;;;;;4993791;28;20226;-66
2022/04/11 12:12:54;;;;;;;5.70;5.20;;;19.50;65.70;;;;;;4993300;28;20208;-66
2022/04/11 12:15:21;;;;;;;6.20;5.60;;;19.50;64.40;;;;;;4993348;28;20169;-66
2022/04/11 12:17:49;;;;;;;5.50;5.03;;;19.90;66.30;;;;;;4993453;28;20165;-66
2022/04/11 12:20:21;;;;;;;5.40;5.00;;;20.20;67.00;;;;;;4993577;28;20223;-65
2022/04/11 12:23:07;;;;;;;5.20;4.90;;;20.60;71.60;;;;;;4993247;28;20192;-66
2022/04/11 12:25:37;;;;;;;5.67;5.17;;;20.80;66.00;;;;;;4981770;28;20588;-66
2022/04/11 12:28:12;;;;;;;6.25;4.90;;;20.90;66.50;;;;;;4972558;28;20177;-66
2022/04/11 12:30:41;;;;;;;5.57;5.07;;;21.10;66.00;;;;;;4973951;28;20197;-65
2022/04/11 12:33:07;;;;;;;5.43;4.93;;;21.20;66.60;;;;;;4973662;28;20567;-65
2022/04/11 12:35:33;;;;;;;5.70;5.20;;;21.10;62.10;;;;;;4973555;28;20170;-65
2022/04/11 12:38:00;;;;;;;5.33;4.90;;;20.90;63.90;;;;;;4973552;28;20178;-65
2022/04/11 12:40:44;;;;;;;10.20;6.70;;;20.60;67.10;;;;;;4973009;28;20166;-65
2022/04/11 12:43:13;;;;;;;11.10;6.07;;;20.50;65.50;;;;;;4973486;28;20288;-67
2022/04/11 12:45:40;;;;;;;5.63;5.23;;;20.60;65.50;;;;;;4973394;28;20180;-66
2022/04/11 12:48:07;;;;;;;5.57;5.07;;;20.80;64.70;;;;;;4973488;28;20180;-65
2022/04/11 12:50:33;;;;;;;6.70;5.20;;;20.80;62.80;;;;;;4973569;28;20173;-65